Gillette, WY (82716)

4:30 PM MST on February 14, 2016 (GMT -0700)
Gillette-Campbell County | | Change Station
CLOSE
Current Station
Airport
Location: Gillette,
Elevation: 4364 ft
Nearby Weather Stations

Elev 4364 ft 44.34 °N, 105.54 °W | Updated 28 minutes ago

Mostly Cloudy
Mostly Cloudy
34 °F
Feels Like 25 °F
N
13
Wind Variable Wind from West

Today
High -- | Low -- °F
--% Chance of Precip.
Yesterday
High -- | Low -- °F
Precip. -- in
Pressure 29.83 in
Visibility 10.0 miles
Clouds Few 3100 ft
Scattered Clouds 5500 ft
Mostly Cloudy 7000 ft
Windchill 25 °F
Dew Point 32 °F
Humidity 92%
Rainfall 0.03 in
Snow Depth Not available.
7:04 AM 5:29 PM
Waxing Crescent, 46% visible
SPECI KGCC 142302Z AUTO 28011KT 10SM FEW031 SCT055 BKN070 01/00 A2983 RMK AO2 T00110000
Pressure 29.83 in
Visibility 10.0 miles
Clouds Few 3100 ft
Scattered Clouds 5500 ft
Mostly Cloudy 7000 ft
Windchill 25 °F
Dew Point 32 °F
Humidity 92%
Rainfall 0.03 in
Snow Depth Not available.
7:04 AM 5:29 PM
Waxing Crescent, 46% visible
SPECI KGCC 142302Z AUTO 28011KT 10SM FEW031 SCT055 BKN070 01/00 A2983 RMK AO2 T00110000

10-Day Weather Forecast

Almanac

Astronomy

Feb. 14, 2016 Rise Set
Actual Time
Civil Twilight
Nautical Twilight
Astronomical Twilight
Moon
Length of Visible Light
Length of Day
Tomorrow will be .
, % of the Moon is Illuminated

Today's Extremes

State Highs State Lows

Community

WunderPhotos

Upload Photos

1,892,915 photos uploaded!

WunderBlog® & News

Nearby

Air Quality

  Air Quality AQ Index Pollutant
Not available.

Snow Depth

Station Depth Elevation

Earthquake Activity

City Distance Mag. Time & Date
Minimum magnitude displayed is 2.5.

Coastal Water Temperatures

Place Temperature

Stations

Nearby Weather Stations

Station Location Temp. Windchill Dew Point Humidity Wind Precip. Elev Updated Type
                   

Watches & Warnings

There are currently no watches in effect.